createdAt,value
2022-08-08T00:01:52.558Z,49.89
2022-08-08T00:04:48.928Z,49.60
2022-08-08T00:07:50.783Z,50.49
2022-08-08T00:10:28.638Z,50.91
2022-08-08T00:13:10.159Z,51.81
2022-08-08T00:15:56.634Z,51.97
2022-08-08T00:18:36.129Z,52.51
2022-08-08T00:21:07.679Z,52.77
2022-08-08T00:23:54.610Z,53.55
2022-08-08T00:26:36.487Z,54.52
2022-08-08T00:29:17.465Z,54.58
2022-08-08T00:32:34.503Z,56.32
2022-08-08T00:35:30.069Z,56.67
2022-08-08T00:38:16.679Z,57.46
2022-08-08T00:41:17.942Z,59.22
2022-08-08T00:44:11.321Z,60.45
2022-08-08T00:47:37.094Z,60.68
2022-08-08T00:50:56.912Z,62.04
2022-08-08T00:54:04.298Z,61.57
2022-08-08T00:57:23.449Z,61.14
2022-08-08T01:00:11.276Z,61.53
2022-08-08T01:03:59.627Z,61.15
2022-08-08T01:06:00.899Z,62.30
2022-08-08T01:08:46.716Z,64.12
2022-08-08T01:11:22.694Z,66.16
2022-08-08T01:14:04.159Z,67.34
2022-08-08T01:17:06.730Z,68.60
2022-08-08T01:20:03.003Z,68.67
2022-08-08T01:23:06.365Z,68.72
2022-08-08T01:26:02.218Z,68.23
2022-08-08T01:29:02.950Z,68.35
2022-08-08T01:32:15.143Z,70.44
2022-08-08T01:35:11.831Z,70.44
2022-08-08T01:37:59.023Z,71.08
2022-08-08T01:41:05.889Z,71.11
2022-08-08T01:43:59.268Z,72.25
2022-08-08T01:47:05.943Z,72.77
2022-08-08T01:50:21.241Z,73.51
2022-08-08T01:55:15.914Z,73.35
2022-08-08T01:56:28.417Z,74.59
2022-08-08T01:58:48.782Z,72.96
2022-08-08T02:01:54.681Z,72.68
2022-08-08T02:04:35.804Z,73.06
2022-08-08T02:07:24.183Z,72.92
2022-08-08T02:10:29.914Z,73.14
2022-08-08T02:13:52.545Z,73.28
2022-08-08T02:16:21.070Z,74.08
2022-08-08T02:19:00.475Z,73.42
2022-08-08T02:22:17.641Z,74.72
2022-08-08T02:24:52.558Z,74.88
2022-08-08T02:27:42.180Z,75.39
2022-08-08T02:30:25.730Z,74.82
2022-08-08T02:34:00.109Z,74.69
2022-08-08T02:36:46.628Z,74.33
2022-08-08T02:39:40.960Z,74.43
2022-08-08T02:43:00.681Z,74.18
2022-08-08T02:45:51.747Z,74.97
2022-08-08T02:48:51.042Z,75.32
2022-08-08T02:51:59.727Z,76.30
2022-08-08T02:54:38.219Z,76.09
2022-08-08T02:57:44.372Z,76.69
2022-08-08T03:00:31.829Z,76.81
2022-08-08T03:05:00.882Z,76.31
2022-08-08T03:06:34.945Z,75.63
2022-08-08T03:09:41.405Z,76.38
2022-08-08T03:12:17.912Z,76.86
2022-08-08T03:16:00.904Z,76.28
2022-08-08T03:18:30.761Z,76.10
2022-08-08T03:21:09.497Z,76.92
2022-08-08T03:23:54.728Z,77.14
2022-08-08T03:26:42.818Z,78.33
2022-08-08T03:29:26.738Z,78.00
2022-08-08T03:32:14.128Z,78.34
2022-08-08T03:34:41.745Z,77.29
2022-08-08T03:37:59.890Z,77.38
2022-08-08T03:40:06.645Z,77.17
2022-08-08T03:42:45.660Z,75.50
2022-08-08T03:46:05.746Z,75.78
2022-08-08T03:48:21.345Z,76.17
2022-08-08T03:51:06.876Z,76.32
2022-08-08T03:53:42.562Z,75.87
2022-08-08T03:56:31.873Z,77.01
2022-08-08T03:59:02.680Z,76.37
2022-08-08T04:02:22.882Z,76.59
2022-08-08T04:04:30.702Z,75.71
2022-08-08T04:07:01.284Z,75.80
2022-08-08T04:09:59.877Z,76.08
2022-08-08T04:12:22.816Z,75.38
2022-08-08T04:14:51.035Z,75.27
2022-08-08T04:17:46.051Z,75.72
2022-08-08T04:20:08.281Z,75.01
2022-08-08T04:22:36.962Z,74.86
2022-08-08T04:25:07.673Z,74.46
2022-08-08T04:28:02.451Z,74.97
2022-08-08T04:30:24.875Z,73.92
2022-08-08T04:32:53.556Z,73.21
2022-08-08T04:35:23.917Z,73.35
2022-08-08T04:37:54.512Z,72.46
2022-08-08T04:40:26.955Z,72.08
2022-08-08T04:43:00.754Z,71.47
2022-08-08T04:45:44.776Z,70.52
2022-08-08T04:48:14.907Z,68.84
2022-08-08T04:50:46.118Z,68.72
2022-08-08T04:54:36.618Z,68.27
2022-08-08T04:56:09.004Z,67.37
2022-08-08T04:58:36.645Z,67.06
2022-08-08T05:01:10.718Z,66.39
2022-08-08T05:04:07.906Z,65.46
2022-08-08T05:06:36.290Z,64.29
2022-08-08T05:09:07.145Z,63.98
2022-08-08T05:11:39.305Z,63.58
2022-08-08T05:14:12.313Z,62.40
2022-08-08T05:16:52.408Z,61.54
2022-08-08T05:20:10.985Z,61.90
2022-08-08T05:22:17.442Z,60.84
2022-08-08T05:24:48.628Z,61.27
2022-08-08T05:27:17.800Z,59.95
2022-08-08T05:29:45.917Z,59.13
2022-08-08T05:32:26.911Z,58.71
2022-08-08T05:34:58.648Z,59.28
2022-08-08T05:37:49.279Z,58.06
2022-08-08T05:40:21.484Z,57.81
2022-08-08T05:43:38.151Z,56.97
2022-08-08T05:46:03.007Z,56.22
2022-08-08T05:48:34.574Z,56.42
2022-08-08T05:51:13.366Z,56.32
2022-08-08T05:54:25.167Z,55.83
2022-08-08T05:56:42.534Z,55.43
2022-08-08T05:59:59.937Z,54.28
2022-08-08T06:02:48.709Z,52.72
2022-08-08T06:05:35.100Z,51.45
2022-08-08T06:08:28.340Z,50.63
2022-08-08T06:11:05.073Z,50.52
2022-08-08T06:13:36.300Z,49.75
2022-08-08T06:16:19.121Z,49.44
2022-08-08T06:19:01.746Z,48.22
2022-08-08T06:21:51.296Z,47.23
2022-08-08T06:24:30.241Z,47.72
2022-08-08T06:27:09.688Z,47.04
2022-08-08T06:30:02.002Z,46.76
2022-08-08T06:32:47.710Z,46.96
2022-08-08T06:36:04.073Z,47.30
2022-08-08T06:38:14.528Z,46.91
2022-08-08T06:40:48.452Z,46.46
2022-08-08T06:43:30.665Z,45.88
2022-08-08T06:46:12.690Z,44.80
2022-08-08T06:48:42.691Z,45.71
2022-08-08T06:51:14.242Z,46.42
2022-08-08T06:53:50.754Z,45.40
2022-08-08T06:56:25.246Z,42.98
2022-08-08T06:58:54.514Z,42.30
2022-08-08T07:02:27.954Z,42.46
2022-08-08T07:04:38.540Z,41.63
2022-08-08T07:07:18.872Z,42.22
2022-08-08T07:10:10.011Z,41.90
2022-08-08T07:12:48.027Z,42.06
2022-08-08T07:16:04.532Z,39.88
2022-08-08T07:18:40.709Z,39.19
2022-08-08T07:21:19.007Z,38.58
2022-08-08T07:24:04.400Z,39.52
2022-08-08T07:26:53.038Z,39.49
2022-08-08T07:30:01.618Z,36.42
2022-08-08T07:32:15.777Z,35.41
2022-08-08T07:35:00.738Z,36.38
2022-08-08T07:37:49.675Z,36.52
2022-08-08T07:40:32.620Z,35.95
2022-08-08T07:43:09.658Z,34.83
2022-08-08T07:46:05.133Z,33.29
2022-08-08T07:48:33.242Z,34.87
2022-08-08T07:51:02.670Z,33.44
2022-08-08T07:54:01.022Z,33.08
2022-08-08T07:56:41.901Z,32.63
2022-08-08T07:59:15.274Z,33.14
2022-08-08T08:02:33.631Z,31.93
2022-08-08T08:04:49.111Z,31.49
2022-08-08T08:07:26.101Z,31.72
2022-08-08T08:10:05.278Z,30.87
2022-08-08T08:12:43.405Z,30.47
2022-08-08T08:15:18.362Z,29.54
2022-08-08T08:17:56.074Z,29.27
2022-08-08T08:20:30.396Z,30.86
2022-08-08T08:23:00.642Z,30.01
2022-08-08T08:25:43.838Z,28.76
2022-08-08T08:28:21.396Z,29.04
2022-08-08T08:30:54.351Z,28.22
2022-08-08T08:33:25.620Z,27.86
2022-08-08T08:36:19.845Z,27.31
2022-08-08T08:38:49.076Z,26.26
2022-08-08T08:41:23.945Z,26.98
2022-08-08T08:44:13.262Z,25.79
2022-08-08T08:46:44.031Z,26.59
2022-08-08T08:49:14.800Z,25.41
2022-08-08T08:51:51.253Z,25.07
2022-08-08T08:54:25.319Z,26.51
2022-08-08T08:56:56.152Z,26.30
2022-08-08T08:59:57.571Z,25.37
2022-08-08T09:02:26.512Z,24.99
2022-08-08T09:04:59.439Z,25.41
2022-08-08T09:07:39.148Z,24.12
2022-08-08T09:10:18.351Z,23.82
2022-08-08T09:12:50.518Z,24.16
2022-08-08T09:15:37.125Z,24.36
2022-08-08T09:18:06.120Z,22.15
2022-08-08T09:21:57.186Z,23.53
2022-08-08T09:23:25.406Z,24.11
2022-08-08T09:26:03.330Z,24.38
2022-08-08T09:28:39.553Z,22.50
2022-08-08T09:31:24.311Z,22.83
2022-08-08T09:34:31.261Z,24.56
2022-08-08T09:37:29.178Z,23.99
2022-08-08T09:40:04.441Z,23.48
2022-08-08T09:43:01.881Z,21.67
2022-08-08T09:45:54.751Z,23.00
2022-08-08T09:48:35.449Z,24.14
2022-08-08T09:51:05.033Z,23.25
2022-08-08T09:54:00.097Z,22.80
2022-08-08T09:56:40.925Z,22.51
2022-08-08T09:59:40.480Z,23.49
2022-08-08T10:02:12.209Z,22.47
2022-08-08T10:04:48.088Z,21.70
2022-08-08T10:07:17.273Z,21.52
2022-08-08T10:09:58.911Z,22.68
2022-08-08T10:12:38.886Z,22.74
2022-08-08T10:15:22.471Z,22.61
2022-08-08T10:18:05.474Z,21.44
2022-08-08T10:20:57.575Z,20.53
2022-08-08T10:23:55.544Z,19.93
2022-08-08T10:26:52.276Z,19.84
2022-08-08T10:29:24.994Z,20.45
2022-08-08T10:32:16.396Z,21.27
2022-08-08T10:34:57.109Z,21.19
2022-08-08T10:37:34.725Z,20.26
2022-08-08T10:40:16.104Z,20.33
2022-08-08T10:42:45.914Z,20.16
2022-08-08T10:45:16.410Z,20.27
2022-08-08T10:47:48.263Z,21.30
2022-08-08T10:50:20.907Z,20.27
2022-08-08T10:52:51.507Z,19.29
2022-08-08T10:55:39.718Z,19.34
2022-08-08T10:58:09.578Z,18.89
2022-08-08T11:00:53.351Z,20.05
2022-08-08T11:04:00.774Z,20.43
2022-08-08T11:06:31.502Z,19.22
2022-08-08T11:09:14.946Z,18.75
2022-08-08T11:12:06.064Z,18.85
2022-08-08T11:14:34.793Z,19.93
2022-08-08T11:17:03.847Z,18.54
2022-08-08T11:19:33.802Z,19.78
2022-08-08T11:22:04.099Z,19.57
2022-08-08T11:24:35.607Z,18.93
2022-08-08T11:27:10.755Z,18.85
2022-08-08T11:30:18.601Z,18.92
2022-08-08T11:32:42.509Z,19.90
2022-08-08T11:35:25.975Z,18.81
2022-08-08T11:38:39.037Z,19.86
2022-08-08T11:40:52.585Z,19.84
2022-08-08T11:43:24.392Z,19.67
2022-08-08T11:46:09.938Z,20.12
2022-08-08T11:48:41.223Z,20.41
2022-08-08T11:51:38.918Z,20.07
2022-08-08T11:54:01.150Z,20.24
2022-08-08T11:56:34.957Z,19.58
2022-08-08T11:59:12.003Z,19.54
2022-08-08T12:01:39.392Z,20.08
2022-08-08T12:04:08.607Z,20.54
2022-08-08T12:06:35.659Z,20.08
2022-08-08T12:09:09.775Z,20.43
2022-08-08T12:11:45.993Z,20.58
2022-08-08T12:14:28.975Z,20.12
2022-08-08T12:16:57.300Z,19.46
2022-08-08T12:19:37.386Z,19.21
2022-08-08T12:22:20.582Z,19.10
2022-08-08T12:24:54.302Z,19.14
2022-08-08T12:27:26.582Z,20.11
2022-08-08T12:30:02.183Z,19.44
2022-08-08T12:32:31.137Z,20.33
2022-08-08T12:35:13.251Z,21.38
2022-08-08T12:38:01.900Z,20.82
2022-08-08T12:40:56.815Z,19.38
2022-08-08T12:43:40.194Z,19.49
2022-08-08T12:46:26.165Z,18.48
2022-08-08T12:49:25.227Z,19.07
2022-08-08T12:51:59.266Z,18.63
2022-08-08T12:54:33.113Z,19.71
2022-08-08T12:57:00.864Z,18.30
2022-08-08T12:59:44.524Z,18.15
2022-08-08T13:02:28.347Z,17.09
2022-08-08T13:04:58.214Z,18.46
2022-08-08T13:08:03.461Z,20.04
2022-08-08T13:10:36.642Z,18.38
2022-08-08T13:13:37.225Z,17.89
2022-08-08T13:16:25.944Z,20.01
2022-08-08T13:18:57.222Z,20.52
2022-08-08T13:21:48.570Z,20.14
2022-08-08T13:24:18.999Z,20.64
2022-08-08T13:27:04.855Z,19.49
2022-08-08T13:29:37.982Z,20.03
2022-08-08T13:32:10.912Z,20.13
2022-08-08T13:34:40.213Z,19.72
2022-08-08T13:37:10.990Z,19.53
2022-08-08T13:39:55.344Z,20.35
2022-08-08T13:42:24.301Z,20.25
2022-08-08T13:44:56.519Z,20.09
2022-08-08T13:47:23.924Z,20.15
2022-08-08T13:50:36.439Z,20.25
2022-08-08T13:52:48.916Z,20.22
2022-08-08T13:55:29.473Z,19.95
2022-08-08T13:58:07.798Z,18.79
2022-08-08T14:00:40.420Z,19.64
2022-08-08T14:03:47.167Z,19.62
2022-08-08T14:06:33.709Z,19.26
2022-08-08T14:08:58.870Z,19.37
2022-08-08T14:11:28.373Z,18.20
2022-08-08T14:14:00.264Z,19.22
2022-08-08T14:16:28.149Z,19.15
2022-08-08T14:18:58.070Z,18.80
2022-08-08T14:21:52.324Z,18.95
2022-08-08T14:24:34.255Z,20.07
2022-08-08T14:27:01.588Z,20.20
2022-08-08T14:29:30.440Z,20.06
2022-08-08T14:32:10.564Z,20.34
2022-08-08T14:34:42.711Z,20.16
2022-08-08T14:37:12.822Z,20.32
2022-08-08T14:40:10.879Z,20.53
2022-08-08T14:42:55.290Z,20.53
2022-08-08T14:45:33.412Z,19.95
2022-08-08T14:48:27.429Z,19.80
2022-08-08T14:51:07.225Z,20.65
2022-08-08T14:53:55.912Z,20.09
2022-08-08T14:56:27.400Z,21.05
2022-08-08T14:58:56.591Z,20.88
2022-08-08T15:01:37.267Z,21.29
2022-08-08T15:04:09.537Z,21.62
2022-08-08T15:06:37.600Z,21.24
2022-08-08T15:09:07.174Z,22.12
2022-08-08T15:11:43.406Z,21.40
2022-08-08T15:14:20.732Z,22.30
2022-08-08T15:16:52.301Z,22.07
2022-08-08T15:19:19.434Z,22.88
2022-08-08T15:21:47.175Z,24.12
2022-08-08T15:24:16.079Z,24.80
2022-08-08T15:26:52.368Z,25.10
2022-08-08T15:29:22.450Z,24.57
2022-08-08T15:32:19.019Z,26.22
2022-08-08T15:34:38.853Z,26.18
2022-08-08T15:37:07.618Z,25.67
2022-08-08T15:39:38.271Z,25.97
2022-08-08T15:42:13.210Z,26.55
2022-08-08T15:44:45.761Z,26.98
2022-08-08T15:47:15.261Z,26.99
2022-08-08T15:49:47.814Z,27.21
2022-08-08T15:52:17.513Z,27.90
2022-08-08T15:54:51.456Z,27.33
2022-08-08T15:57:19.406Z,28.07
2022-08-08T16:00:06.224Z,28.90
2022-08-08T16:02:44.574Z,28.99
2022-08-08T16:05:23.764Z,29.60
2022-08-08T16:07:53.908Z,30.21
2022-08-08T16:13:04.682Z,31.35
2022-08-08T16:13:32.240Z,30.97
2022-08-08T16:16:17.268Z,31.84
2022-08-08T16:18:56.322Z,32.58
2022-08-08T16:21:30.846Z,33.45
2022-08-08T16:24:01.964Z,34.20
2022-08-08T16:26:32.977Z,34.72
2022-08-08T16:29:16.140Z,35.24
2022-08-08T16:31:48.958Z,35.86
2022-08-08T16:34:19.792Z,35.98
2022-08-08T16:36:50.262Z,36.42
2022-08-08T16:40:01.428Z,36.37
2022-08-08T16:42:05.934Z,36.53
2022-08-08T16:44:33.682Z,36.70
2022-08-08T16:47:31.702Z,36.84
2022-08-08T16:50:15.209Z,37.34
2022-08-08T16:55:00.059Z,37.40
2022-08-08T16:55:55.518Z,36.75
2022-08-08T16:58:26.860Z,37.06
2022-08-08T17:00:59.084Z,37.28
2022-08-08T17:03:59.985Z,37.15
2022-08-08T17:06:35.296Z,37.39
2022-08-08T17:09:02.410Z,37.86
2022-08-08T17:11:39.275Z,37.28
2022-08-08T17:14:18.903Z,36.99
2022-08-08T17:16:51.747Z,36.73
2022-08-08T17:19:25.210Z,36.55
2022-08-08T17:21:52.180Z,36.45
2022-08-08T17:24:28.025Z,36.21
2022-08-08T17:26:58.813Z,36.96
2022-08-08T17:29:27.507Z,37.21
2022-08-08T17:31:57.449Z,36.75
2022-08-08T17:34:53.450Z,36.69
2022-08-08T17:37:13.625Z,36.21
2022-08-08T17:40:03.211Z,36.56
2022-08-08T17:42:28.124Z,36.17
2022-08-08T17:44:58.551Z,35.40
2022-08-08T17:47:40.115Z,35.05
2022-08-08T17:50:09.675Z,34.16
2022-08-08T17:52:38.449Z,34.00
2022-08-08T17:56:05.299Z,33.60
2022-08-08T17:57:59.006Z,33.93
2022-08-08T18:00:30.723Z,33.81
2022-08-08T18:03:08.723Z,33.90
2022-08-08T18:05:48.501Z,34.28
2022-08-08T18:08:24.704Z,34.29
2022-08-08T18:11:11.567Z,34.37
2022-08-08T18:13:41.919Z,33.79
2022-08-08T18:16:10.353Z,33.89
2022-08-08T18:18:45.265Z,33.86
2022-08-08T18:21:35.082Z,33.37
2022-08-08T18:24:17.373Z,33.27
2022-08-08T18:26:53.873Z,32.99
2022-08-08T18:29:30.237Z,33.31
2022-08-08T18:32:03.506Z,33.16
2022-08-08T18:34:32.930Z,33.78
2022-08-08T18:37:04.695Z,33.78
2022-08-08T18:39:35.656Z,33.84
2022-08-08T18:42:12.949Z,34.70
2022-08-08T18:44:42.177Z,34.76
2022-08-08T18:47:09.267Z,35.89
2022-08-08T18:49:58.071Z,36.27
2022-08-08T18:52:24.123Z,36.26
2022-08-08T18:55:00.897Z,36.26
2022-08-08T18:57:44.733Z,35.96
2022-08-08T19:00:15.619Z,36.58
2022-08-08T19:02:55.459Z,36.59
2022-08-08T19:05:34.006Z,37.15
2022-08-08T19:08:29.186Z,36.99
2022-08-08T19:11:02.181Z,37.79
2022-08-08T19:13:53.014Z,37.99
2022-08-08T19:16:20.163Z,37.93
2022-08-08T19:18:53.416Z,38.20
2022-08-08T19:21:30.291Z,38.16
2022-08-08T19:23:58.437Z,37.65
2022-08-08T19:26:30.903Z,37.18
2022-08-08T19:29:00.483Z,36.86
2022-08-08T19:31:31.544Z,36.55
2022-08-08T19:34:35.696Z,36.00
2022-08-08T19:36:55.346Z,35.84
2022-08-08T19:39:25.454Z,36.17
2022-08-08T19:41:58.011Z,35.40
2022-08-08T19:44:42.523Z,35.66
2022-08-08T19:47:12.347Z,35.51
2022-08-08T19:49:39.771Z,35.77
2022-08-08T19:52:13.293Z,36.77
2022-08-08T19:54:43.156Z,36.59
2022-08-08T19:57:11.290Z,37.17
2022-08-08T19:59:43.721Z,38.12
2022-08-08T20:02:12.024Z,38.15
2022-08-08T20:04:39.198Z,38.27
2022-08-08T20:08:31.102Z,38.71
2022-08-08T20:09:59.029Z,39.19
2022-08-08T20:12:32.415Z,39.29
2022-08-08T20:15:16.557Z,39.92
2022-08-08T20:17:46.916Z,40.21
2022-08-08T20:20:19.602Z,40.28
2022-08-08T20:22:54.033Z,40.37
2022-08-08T20:25:26.367Z,40.81
2022-08-08T20:27:59.379Z,40.97
2022-08-08T20:30:53.871Z,40.27
2022-08-08T20:35:58.788Z,41.67
2022-08-08T20:38:32.387Z,41.72
2022-08-08T20:41:05.897Z,41.21
2022-08-08T20:43:48.168Z,40.81
2022-08-08T20:46:16.639Z,39.96
2022-08-08T20:48:44.474Z,39.07
2022-08-08T20:51:11.443Z,39.80
2022-08-08T20:53:59.360Z,40.38
2022-08-08T20:56:35.929Z,41.11
2022-08-08T20:59:09.050Z,41.58
2022-08-08T21:02:05.661Z,41.19
2022-08-08T21:04:27.710Z,41.30
2022-08-08T21:06:55.468Z,40.81
2022-08-08T21:09:23.086Z,39.84
2022-08-08T21:12:02.874Z,39.12
2022-08-08T21:14:34.697Z,38.47
2022-08-08T21:17:06.763Z,38.81
2022-08-08T21:19:46.102Z,39.50
2022-08-08T21:22:15.781Z,40.54
2022-08-08T21:24:52.769Z,40.12
2022-08-08T21:28:06.551Z,40.43
2022-08-08T21:30:17.882Z,40.46
2022-08-08T21:32:52.522Z,40.21
2022-08-08T21:36:16.239Z,40.44
2022-08-08T21:38:16.687Z,39.89
2022-08-08T21:40:55.052Z,39.04
2022-08-08T21:43:33.336Z,38.47
2022-08-08T21:48:05.024Z,38.38
2022-08-08T21:48:55.296Z,38.11
2022-08-08T21:54:22.800Z,38.60
2022-08-08T21:54:32.000Z,38.18
2022-08-08T21:57:01.192Z,38.68
2022-08-08T22:00:01.825Z,38.39
2022-08-08T22:02:22.916Z,38.54
2022-08-08T22:04:56.037Z,38.25
2022-08-08T22:07:39.512Z,38.44
2022-08-08T22:10:09.611Z,38.59
2022-08-08T22:12:38.927Z,38.27
2022-08-08T22:15:07.654Z,37.89
2022-08-08T22:17:41.425Z,37.86
2022-08-08T22:20:18.789Z,38.05
2022-08-08T22:22:51.086Z,38.42
2022-08-08T22:25:25.269Z,39.04
2022-08-08T22:28:02.666Z,39.36
2022-08-08T22:30:32.606Z,40.20
2022-08-08T22:33:01.559Z,40.13
2022-08-08T22:36:05.206Z,40.23
2022-08-08T22:38:17.676Z,40.83
2022-08-08T22:40:45.038Z,40.17
2022-08-08T22:43:15.704Z,40.76
2022-08-08T22:45:46.596Z,41.72
2022-08-08T22:48:21.791Z,46.24
2022-08-08T22:50:49.685Z,47.20
2022-08-08T22:54:32.305Z,47.92
2022-08-08T22:56:05.285Z,43.96
2022-08-08T22:58:34.215Z,43.69
2022-08-08T23:02:00.570Z,43.94
2022-08-08T23:03:56.437Z,44.83
2022-08-08T23:06:25.481Z,44.89
2022-08-08T23:08:55.683Z,44.67
2022-08-08T23:11:31.269Z,44.90
2022-08-08T23:14:18.683Z,44.82
2022-08-08T23:16:54.744Z,45.40
2022-08-08T23:19:26.044Z,45.41
2022-08-08T23:21:53.404Z,45.46
2022-08-08T23:24:22.513Z,45.79
2022-08-08T23:26:53.446Z,45.74
2022-08-08T23:29:24.894Z,46.03
2022-08-08T23:31:52.215Z,46.49
2022-08-08T23:34:20.028Z,46.55
2022-08-08T23:36:48.518Z,46.38
2022-08-08T23:39:15.818Z,46.80
2022-08-08T23:41:46.927Z,46.91
2022-08-08T23:44:18.654Z,46.96
2022-08-08T23:49:04.329Z,47.45
2022-08-08T23:49:35.423Z,47.96
2022-08-08T23:52:04.941Z,47.88
2022-08-08T23:54:53.428Z,48.34
2022-08-08T23:57:38.783Z,48.91
